Gardiner, Montana
Current Conditions -  °F | °C
As of 4:53 AM on Thursday 27 Nov 2014 (Local Time) from KLVM Reporting Station
Clear Clear  
Wind Chill: 34°   Ceiling: Unl
Heat Index: 45°   Visibility: 10mi
Dew Point: 29°   Wind: 38mph
Humidity: 53%   Direction: 220°SW
Pressure: 29.97"   Gusts: 44mph
Location:  45.03°N, 110.72°W
Report Text: KLVM 271153Z AUTO 22033G38KT 10SM CLR 07/M02 A2997 RMK AO2 PK WND 21040/1058 SLP166 70009 T00721017 10078 20056 58002
Loading
Personal Weather Stations






























Interactive Weather Map New forecast layout! Learn more

10-Day Weather Forecast

Advertisements
Track Severe Weather on mobile